sensor_id;sensor_type;location;lat;lon;timestamp;P1;durP1;ratioP1;P2;durP2;ratioP2
3865;SDS011;1948;53.250;10.412;2024-03-02T00:01:51;56.93;;;29.37;;
3865;SDS011;1948;53.250;10.412;2024-03-02T00:04:21;61.60;;;30.43;;
3865;SDS011;1948;53.250;10.412;2024-03-02T00:06:51;55.93;;;28.83;;
3865;SDS011;1948;53.250;10.412;2024-03-02T00:09:22;56.27;;;29.80;;
3865;SDS011;1948;53.250;10.412;2024-03-02T00:11:49;63.07;;;30.00;;
3865;SDS011;1948;53.250;10.412;2024-03-02T00:14:19;56.97;;;29.10;;
3865;SDS011;1948;53.250;10.412;2024-03-02T00:16:46;59.83;;;29.43;;
3865;SDS011;1948;53.250;10.412;2024-03-02T00:19:13;59.90;;;29.57;;
3865;SDS011;1948;53.250;10.412;2024-03-02T00:21:43;59.27;;;30.30;;
3865;SDS011;1948;53.250;10.412;2024-03-02T00:24:20;56.43;;;29.50;;
3865;SDS011;1948;53.250;10.412;2024-03-02T00:26:54;58.70;;;31.20;;
3865;SDS011;1948;53.250;10.412;2024-03-02T00:29:21;66.57;;;30.93;;
3865;SDS011;1948;53.250;10.412;2024-03-02T00:31:53;62.47;;;31.00;;
3865;SDS011;1948;53.250;10.412;2024-03-02T00:34:21;58.90;;;30.83;;
3865;SDS011;1948;53.250;10.412;2024-03-02T00:36:51;64.90;;;31.80;;
3865;SDS011;1948;53.250;10.412;2024-03-02T00:39:18;60.13;;;31.77;;
3865;SDS011;1948;53.250;10.412;2024-03-02T00:41:45;59.43;;;31.07;;
3865;SDS011;1948;53.250;10.412;2024-03-02T00:44:15;61.27;;;31.20;;
3865;SDS011;1948;53.250;10.412;2024-03-02T00:46:46;56.10;;;28.60;;
3865;SDS011;1948;53.250;10.412;2024-03-02T00:49:23;63.33;;;32.00;;
3865;SDS011;1948;53.250;10.412;2024-03-02T00:51:52;55.23;;;29.43;;
3865;SDS011;1948;53.250;10.412;2024-03-02T00:54:24;57.43;;;29.03;;
3865;SDS011;1948;53.250;10.412;2024-03-02T00:56:53;64.43;;;31.07;;
3865;SDS011;1948;53.250;10.412;2024-03-02T00:59:22;63.30;;;31.00;;
3865;SDS011;1948;53.250;10.412;2024-03-02T01:01:52;60.47;;;31.90;;
3865;SDS011;1948;53.250;10.412;2024-03-02T01:04:22;62.53;;;32.03;;
3865;SDS011;1948;53.250;10.412;2024-03-02T01:06:48;76.03;;;30.90;;
3865;SDS011;1948;53.250;10.412;2024-03-02T01:09:19;57.10;;;30.47;;
3865;SDS011;1948;53.250;10.412;2024-03-02T01:11:46;55.60;;;30.80;;
3865;SDS011;1948;53.250;10.412;2024-03-02T01:14:13;66.50;;;30.83;;
3865;SDS011;1948;53.250;10.412;2024-03-02T01:16:42;61.90;;;31.33;;
3865;SDS011;1948;53.250;10.412;2024-03-02T01:19:09;60.33;;;30.90;;
3865;SDS011;1948;53.250;10.412;2024-03-02T01:21:38;55.53;;;30.30;;
3865;SDS011;1948;53.250;10.412;2024-03-02T01:24:10;63.50;;;32.33;;
3865;SDS011;1948;53.250;10.412;2024-03-02T01:26:37;66.07;;;32.93;;
3865;SDS011;1948;53.250;10.412;2024-03-02T01:29:06;65.37;;;31.83;;
3865;SDS011;1948;53.250;10.412;2024-03-02T01:31:33;66.10;;;31.27;;
3865;SDS011;1948;53.250;10.412;2024-03-02T01:34:03;67.03;;;32.13;;
3865;SDS011;1948;53.250;10.412;2024-03-02T01:36:32;69.43;;;32.17;;
3865;SDS011;1948;53.250;10.412;2024-03-02T01:38:59;64.77;;;32.37;;
3865;SDS011;1948;53.250;10.412;2024-03-02T01:41:29;77.73;;;34.60;;
3865;SDS011;1948;53.250;10.412;2024-03-02T01:43:56;58.47;;;31.43;;
3865;SDS011;1948;53.250;10.412;2024-03-02T01:46:23;71.53;;;31.67;;
3865;SDS011;1948;53.250;10.412;2024-03-02T01:48:50;61.20;;;30.17;;
3865;SDS011;1948;53.250;10.412;2024-03-02T01:51:17;59.93;;;30.17;;
3865;SDS011;1948;53.250;10.412;2024-03-02T01:53:49;53.93;;;30.23;;
3865;SDS011;1948;53.250;10.412;2024-03-02T01:56:16;62.80;;;33.40;;
3865;SDS011;1948;53.250;10.412;2024-03-02T01:58:43;57.60;;;30.63;;
3865;SDS011;1948;53.250;10.412;2024-03-02T02:01:10;69.00;;;32.07;;
3865;SDS011;1948;53.250;10.412;2024-03-02T02:03:37;67.27;;;30.43;;
3865;SDS011;1948;53.250;10.412;2024-03-02T02:06:07;59.93;;;29.97;;
3865;SDS011;1948;53.250;10.412;2024-03-02T02:08:34;59.40;;;30.93;;
3865;SDS011;1948;53.250;10.412;2024-03-02T02:11:04;55.97;;;30.27;;
3865;SDS011;1948;53.250;10.412;2024-03-02T02:13:33;60.77;;;29.77;;
3865;SDS011;1948;53.250;10.412;2024-03-02T02:16:04;59.60;;;29.83;;
3865;SDS011;1948;53.250;10.412;2024-03-02T02:18:36;56.37;;;29.70;;
3865;SDS011;1948;53.250;10.412;2024-03-02T02:21:04;58.57;;;30.33;;
3865;SDS011;1948;53.250;10.412;2024-03-02T02:23:31;65.27;;;31.57;;
3865;SDS011;1948;53.250;10.412;2024-03-02T02:25:57;56.93;;;31.20;;
3865;SDS011;1948;53.250;10.412;2024-03-02T02:28:29;62.60;;;30.97;;
3865;SDS011;1948;53.250;10.412;2024-03-02T02:30:56;60.53;;;31.00;;
3865;SDS011;1948;53.250;10.412;2024-03-02T02:33:23;55.80;;;30.27;;
3865;SDS011;1948;53.250;10.412;2024-03-02T02:35:50;68.97;;;30.30;;
3865;SDS011;1948;53.250;10.412;2024-03-02T02:38:17;55.90;;;32.00;;
3865;SDS011;1948;53.250;10.412;2024-03-02T02:40:46;59.90;;;32.07;;
3865;SDS011;1948;53.250;10.412;2024-03-02T02:43:13;64.30;;;30.50;;
3865;SDS011;1948;53.250;10.412;2024-03-02T02:45:42;55.53;;;29.33;;
3865;SDS011;1948;53.250;10.412;2024-03-02T02:48:14;62.33;;;31.17;;
3865;SDS011;1948;53.250;10.412;2024-03-02T02:50:41;65.63;;;29.33;;
3865;SDS011;1948;53.250;10.412;2024-03-02T02:53:08;60.90;;;30.33;;
3865;SDS011;1948;53.250;10.412;2024-03-02T02:55:44;61.87;;;29.70;;
3865;SDS011;1948;53.250;10.412;2024-03-02T02:58:11;61.17;;;30.33;;
3865;SDS011;1948;53.250;10.412;2024-03-02T03:00:40;68.07;;;31.70;;
3865;SDS011;1948;53.250;10.412;2024-03-02T03:03:08;61.33;;;31.50;;
3865;SDS011;1948;53.250;10.412;2024-03-02T03:05:35;60.10;;;32.07;;
3865;SDS011;1948;53.250;10.412;2024-03-02T03:08:04;67.40;;;32.17;;
3865;SDS011;1948;53.250;10.412;2024-03-02T03:10:31;76.70;;;32.90;;
3865;SDS011;1948;53.250;10.412;2024-03-02T03:12:59;70.60;;;31.47;;
3865;SDS011;1948;53.250;10.412;2024-03-02T03:15:29;59.77;;;32.70;;
3865;SDS011;1948;53.250;10.412;2024-03-02T03:17:55;54.63;;;28.67;;
3865;SDS011;1948;53.250;10.412;2024-03-02T03:20:27;60.77;;;29.53;;
3865;SDS011;1948;53.250;10.412;2024-03-02T03:22:57;59.60;;;30.80;;
3865;SDS011;1948;53.250;10.412;2024-03-02T03:25:24;61.47;;;30.00;;
3865;SDS011;1948;53.250;10.412;2024-03-02T03:27:56;66.10;;;31.67;;
3865;SDS011;1948;53.250;10.412;2024-03-02T03:30:23;69.20;;;30.87;;
3865;SDS011;1948;53.250;10.412;2024-03-02T03:32:50;68.53;;;29.97;;
3865;SDS011;1948;53.250;10.412;2024-03-02T03:35:19;57.43;;;28.07;;
3865;SDS011;1948;53.250;10.412;2024-03-02T03:37:46;62.97;;;29.93;;
3865;SDS011;1948;53.250;10.412;2024-03-02T03:40:15;51.40;;;28.50;;
3865;SDS011;1948;53.250;10.412;2024-03-02T03:42:44;48.33;;;27.27;;
3865;SDS011;1948;53.250;10.412;2024-03-02T03:45:15;53.67;;;29.97;;
3865;SDS011;1948;53.250;10.412;2024-03-02T03:47:44;54.63;;;29.17;;
3865;SDS011;1948;53.250;10.412;2024-03-02T03:50:11;60.23;;;28.93;;
3865;SDS011;1948;53.250;10.412;2024-03-02T03:52:38;52.73;;;28.13;;
3865;SDS011;1948;53.250;10.412;2024-03-02T03:55:05;50.40;;;27.67;;
3865;SDS011;1948;53.250;10.412;2024-03-02T03:57:36;61.03;;;29.60;;
3865;SDS011;1948;53.250;10.412;2024-03-02T04:00:03;54.63;;;28.37;;
3865;SDS011;1948;53.250;10.412;2024-03-02T04:02:31;61.30;;;29.70;;
3865;SDS011;1948;53.250;10.412;2024-03-02T04:04:57;60.60;;;30.40;;
3865;SDS011;1948;53.250;10.412;2024-03-02T04:07:27;58.27;;;28.30;;
3865;SDS011;1948;53.250;10.412;2024-03-02T04:09:58;47.30;;;25.90;;
3865;SDS011;1948;53.250;10.412;2024-03-02T04:12:29;57.00;;;28.07;;
3865;SDS011;1948;53.250;10.412;2024-03-02T04:14:56;53.50;;;27.13;;
3865;SDS011;1948;53.250;10.412;2024-03-02T04:17:23;47.00;;;26.43;;
3865;SDS011;1948;53.250;10.412;2024-03-02T04:19:55;49.53;;;26.37;;
3865;SDS011;1948;53.250;10.412;2024-03-02T04:22:25;58.20;;;28.47;;
3865;SDS011;1948;53.250;10.412;2024-03-02T04:24:56;48.17;;;25.43;;
3865;SDS011;1948;53.250;10.412;2024-03-02T04:27:23;47.20;;;26.17;;
3865;SDS011;1948;53.250;10.412;2024-03-02T04:29:50;53.17;;;28.17;;
3865;SDS011;1948;53.250;10.412;2024-03-02T04:32:17;62.23;;;30.13;;
3865;SDS011;1948;53.250;10.412;2024-03-02T04:34:48;53.57;;;29.00;;
3865;SDS011;1948;53.250;10.412;2024-03-02T04:37:15;48.80;;;27.13;;
3865;SDS011;1948;53.250;10.412;2024-03-02T04:39:42;53.60;;;27.00;;
3865;SDS011;1948;53.250;10.412;2024-03-02T04:42:09;57.63;;;29.13;;
3865;SDS011;1948;53.250;10.412;2024-03-02T04:44:39;50.70;;;28.20;;
3865;SDS011;1948;53.250;10.412;2024-03-02T04:47:05;46.70;;;24.90;;
3865;SDS011;1948;53.250;10.412;2024-03-02T04:49:32;51.67;;;28.07;;
3865;SDS011;1948;53.250;10.412;2024-03-02T04:52:00;49.40;;;26.30;;
3865;SDS011;1948;53.250;10.412;2024-03-02T04:54:29;50.50;;;26.97;;
3865;SDS011;1948;53.250;10.412;2024-03-02T04:56:56;59.87;;;28.20;;
3865;SDS011;1948;53.250;10.412;2024-03-02T04:59:24;50.37;;;26.83;;
3865;SDS011;1948;53.250;10.412;2024-03-02T05:01:51;56.40;;;28.60;;
3865;SDS011;1948;53.250;10.412;2024-03-02T05:04:21;49.37;;;26.00;;
3865;SDS011;1948;53.250;10.412;2024-03-02T05:06:48;52.27;;;26.53;;
3865;SDS011;1948;53.250;10.412;2024-03-02T05:09:19;46.13;;;25.40;;
3865;SDS011;1948;53.250;10.412;2024-03-02T05:11:49;45.03;;;25.33;;
3865;SDS011;1948;53.250;10.412;2024-03-02T05:14:34;46.93;;;25.17;;
3865;SDS011;1948;53.250;10.412;2024-03-02T05:17:01;55.60;;;27.73;;
3865;SDS011;1948;53.250;10.412;2024-03-02T05:19:35;47.03;;;25.57;;
3865;SDS011;1948;53.250;10.412;2024-03-02T05:22:04;46.10;;;26.37;;
3865;SDS011;1948;53.250;10.412;2024-03-02T05:24:34;44.77;;;25.80;;
3865;SDS011;1948;53.250;10.412;2024-03-02T05:27:01;46.27;;;26.20;;
3865;SDS011;1948;53.250;10.412;2024-03-02T05:29:27;49.43;;;25.50;;
3865;SDS011;1948;53.250;10.412;2024-03-02T05:31:54;62.50;;;26.20;;
3865;SDS011;1948;53.250;10.412;2024-03-02T05:34:21;53.73;;;27.07;;
3865;SDS011;1948;53.250;10.412;2024-03-02T05:36:48;46.77;;;26.50;;
3865;SDS011;1948;53.250;10.412;2024-03-02T05:39:18;51.53;;;27.83;;
3865;SDS011;1948;53.250;10.412;2024-03-02T05:41:45;51.23;;;28.03;;
3865;SDS011;1948;53.250;10.412;2024-03-02T05:44:17;49.90;;;26.93;;
3865;SDS011;1948;53.250;10.412;2024-03-02T05:46:44;51.20;;;26.80;;
3865;SDS011;1948;53.250;10.412;2024-03-02T05:49:15;45.90;;;25.40;;
3865;SDS011;1948;53.250;10.412;2024-03-02T05:51:42;56.70;;;28.70;;
3865;SDS011;1948;53.250;10.412;2024-03-02T05:54:09;54.57;;;28.40;;
3865;SDS011;1948;53.250;10.412;2024-03-02T05:56:36;58.20;;;28.40;;
3865;SDS011;1948;53.250;10.412;2024-03-02T05:59:03;71.97;;;27.87;;
3865;SDS011;1948;53.250;10.412;2024-03-02T06:01:48;50.40;;;27.40;;
3865;SDS011;1948;53.250;10.412;2024-03-02T06:04:18;51.43;;;29.17;;
3865;SDS011;1948;53.250;10.412;2024-03-02T06:06:45;55.50;;;28.13;;
3865;SDS011;1948;53.250;10.412;2024-03-02T06:09:19;49.17;;;26.50;;
3865;SDS011;1948;53.250;10.412;2024-03-02T06:11:50;51.57;;;27.33;;
3865;SDS011;1948;53.250;10.412;2024-03-02T06:14:17;52.07;;;27.13;;
3865;SDS011;1948;53.250;10.412;2024-03-02T06:16:47;53.23;;;28.17;;
3865;SDS011;1948;53.250;10.412;2024-03-02T06:19:14;51.67;;;28.00;;
3865;SDS011;1948;53.250;10.412;2024-03-02T06:21:44;72.50;;;28.53;;
3865;SDS011;1948;53.250;10.412;2024-03-02T06:24:14;56.73;;;30.00;;
3865;SDS011;1948;53.250;10.412;2024-03-02T06:26:41;54.80;;;30.33;;
3865;SDS011;1948;53.250;10.412;2024-03-02T06:29:08;56.30;;;31.27;;
3865;SDS011;1948;53.250;10.412;2024-03-02T06:31:35;60.03;;;30.37;;
3865;SDS011;1948;53.250;10.412;2024-03-02T06:34:02;57.37;;;28.97;;
3865;SDS011;1948;53.250;10.412;2024-03-02T06:36:31;67.27;;;30.57;;
3865;SDS011;1948;53.250;10.412;2024-03-02T06:39:02;57.17;;;29.40;;
3865;SDS011;1948;53.250;10.412;2024-03-02T06:41:29;71.07;;;30.17;;
3865;SDS011;1948;53.250;10.412;2024-03-02T06:43:57;63.83;;;29.90;;
3865;SDS011;1948;53.250;10.412;2024-03-02T06:46:26;53.47;;;28.90;;
3865;SDS011;1948;53.250;10.412;2024-03-02T06:48:53;62.87;;;30.83;;
3865;SDS011;1948;53.250;10.412;2024-03-02T06:51:20;70.93;;;30.77;;
3865;SDS011;1948;53.250;10.412;2024-03-02T06:53:50;61.60;;;28.63;;
3865;SDS011;1948;53.250;10.412;2024-03-02T06:56:17;56.97;;;30.33;;
3865;SDS011;1948;53.250;10.412;2024-03-02T06:58:44;68.90;;;31.67;;
3865;SDS011;1948;53.250;10.412;2024-03-02T07:01:13;58.10;;;30.03;;
3865;SDS011;1948;53.250;10.412;2024-03-02T07:03:41;58.50;;;29.90;;
3865;SDS011;1948;53.250;10.412;2024-03-02T07:06:08;53.63;;;30.13;;
3865;SDS011;1948;53.250;10.412;2024-03-02T07:08:39;56.40;;;29.33;;
3865;SDS011;1948;53.250;10.412;2024-03-02T07:11:06;63.20;;;31.10;;
3865;SDS011;1948;53.250;10.412;2024-03-02T07:13:34;54.07;;;29.00;;
3865;SDS011;1948;53.250;10.412;2024-03-02T07:16:01;60.80;;;31.07;;
3865;SDS011;1948;53.250;10.412;2024-03-02T07:18:31;58.27;;;29.40;;
3865;SDS011;1948;53.250;10.412;2024-03-02T07:21:07;52.33;;;29.20;;
3865;SDS011;1948;53.250;10.412;2024-03-02T07:23:36;62.60;;;30.90;;
3865;SDS011;1948;53.250;10.412;2024-03-02T07:26:03;54.47;;;28.90;;
3865;SDS011;1948;53.250;10.412;2024-03-02T07:28:33;56.00;;;29.23;;
3865;SDS011;1948;53.250;10.412;2024-03-02T07:31:03;48.43;;;27.17;;
3865;SDS011;1948;53.250;10.412;2024-03-02T07:33:33;52.13;;;28.60;;
3865;SDS011;1948;53.250;10.412;2024-03-02T07:36:00;54.77;;;28.17;;
3865;SDS011;1948;53.250;10.412;2024-03-02T07:38:31;57.33;;;29.23;;
3865;SDS011;1948;53.250;10.412;2024-03-02T07:41:03;54.50;;;28.73;;
3865;SDS011;1948;53.250;10.412;2024-03-02T07:43:30;49.77;;;27.73;;
3865;SDS011;1948;53.250;10.412;2024-03-02T07:46:01;54.73;;;26.67;;
3865;SDS011;1948;53.250;10.412;2024-03-02T07:48:29;53.67;;;28.13;;
3865;SDS011;1948;53.250;10.412;2024-03-02T07:50:57;47.70;;;26.53;;
3865;SDS011;1948;53.250;10.412;2024-03-02T07:53:28;48.40;;;25.90;;
3865;SDS011;1948;53.250;10.412;2024-03-02T07:55:56;48.47;;;26.73;;
3865;SDS011;1948;53.250;10.412;2024-03-02T07:58:29;48.73;;;28.10;;
3865;SDS011;1948;53.250;10.412;2024-03-02T08:00:58;49.23;;;27.53;;
3865;SDS011;1948;53.250;10.412;2024-03-02T08:03:31;56.50;;;27.70;;
3865;SDS011;1948;53.250;10.412;2024-03-02T08:06:01;45.50;;;26.70;;
3865;SDS011;1948;53.250;10.412;2024-03-02T08:08:32;47.50;;;26.30;;
3865;SDS011;1948;53.250;10.412;2024-03-02T08:11:02;44.57;;;25.77;;
3865;SDS011;1948;53.250;10.412;2024-03-02T08:13:33;56.80;;;27.73;;
3865;SDS011;1948;53.250;10.412;2024-03-02T08:16:03;46.20;;;26.73;;
3865;SDS011;1948;53.250;10.412;2024-03-02T08:18:37;49.57;;;27.33;;
3865;SDS011;1948;53.250;10.412;2024-03-02T08:21:09;49.97;;;25.90;;
3865;SDS011;1948;53.250;10.412;2024-03-02T08:23:38;51.13;;;24.83;;
3865;SDS011;1948;53.250;10.412;2024-03-02T08:26:13;39.33;;;24.80;;
3865;SDS011;1948;53.250;10.412;2024-03-02T08:28:47;48.70;;;26.30;;
3865;SDS011;1948;53.250;10.412;2024-03-02T08:31:16;45.00;;;24.93;;
3865;SDS011;1948;53.250;10.412;2024-03-02T08:33:45;46.07;;;24.97;;
3865;SDS011;1948;53.250;10.412;2024-03-02T08:36:16;41.53;;;24.60;;
3865;SDS011;1948;53.250;10.412;2024-03-02T08:38:48;43.47;;;25.73;;
3865;SDS011;1948;53.250;10.412;2024-03-02T08:41:17;41.40;;;23.87;;
3865;SDS011;1948;53.250;10.412;2024-03-02T08:43:48;39.73;;;24.03;;
3865;SDS011;1948;53.250;10.412;2024-03-02T08:46:16;62.20;;;25.00;;
3865;SDS011;1948;53.250;10.412;2024-03-02T08:48:43;37.63;;;23.10;;
3865;SDS011;1948;53.250;10.412;2024-03-02T08:51:10;36.77;;;23.70;;
3865;SDS011;1948;53.250;10.412;2024-03-02T08:53:37;34.90;;;22.10;;
3865;SDS011;1948;53.250;10.412;2024-03-02T08:56:07;34.17;;;22.40;;
3865;SDS011;1948;53.250;10.412;2024-03-02T08:58:34;38.37;;;22.57;;
3865;SDS011;1948;53.250;10.412;2024-03-02T09:01:01;38.43;;;21.67;;
3865;SDS011;1948;53.250;10.412;2024-03-02T09:03:28;39.83;;;22.33;;
3865;SDS011;1948;53.250;10.412;2024-03-02T09:05:59;36.00;;;20.40;;
3865;SDS011;1948;53.250;10.412;2024-03-02T09:08:29;28.63;;;20.40;;
3865;SDS011;1948;53.250;10.412;2024-03-02T09:10:56;31.83;;;21.60;;
3865;SDS011;1948;53.250;10.412;2024-03-02T09:13:25;33.93;;;21.50;;
3865;SDS011;1948;53.250;10.412;2024-03-02T09:15:52;31.73;;;19.90;;
3865;SDS011;1948;53.250;10.412;2024-03-02T09:18:21;30.07;;;20.00;;
3865;SDS011;1948;53.250;10.412;2024-03-02T09:20:48;33.47;;;20.80;;
3865;SDS011;1948;53.250;10.412;2024-03-02T09:23:15;38.80;;;21.07;;
3865;SDS011;1948;53.250;10.412;2024-03-02T09:25:42;34.23;;;19.03;;
3865;SDS011;1948;53.250;10.412;2024-03-02T09:28:09;27.17;;;19.37;;
3865;SDS011;1948;53.250;10.412;2024-03-02T09:30:37;27.80;;;19.30;;
3865;SDS011;1948;53.250;10.412;2024-03-02T09:33:04;28.00;;;19.03;;
3865;SDS011;1948;53.250;10.412;2024-03-02T09:35:36;24.40;;;19.13;;
3865;SDS011;1948;53.250;10.412;2024-03-02T09:38:06;23.30;;;17.63;;
3865;SDS011;1948;53.250;10.412;2024-03-02T09:40:33;33.13;;;19.00;;
3865;SDS011;1948;53.250;10.412;2024-03-02T09:43:07;26.00;;;18.73;;
3865;SDS011;1948;53.250;10.412;2024-03-02T09:45:36;25.23;;;17.23;;
3865;SDS011;1948;53.250;10.412;2024-03-02T09:48:04;21.33;;;17.87;;
3865;SDS011;1948;53.250;10.412;2024-03-02T09:50:34;23.73;;;17.97;;
3865;SDS011;1948;53.250;10.412;2024-03-02T09:53:04;23.80;;;16.93;;
3865;SDS011;1948;53.250;10.412;2024-03-02T09:55:31;25.63;;;18.70;;
3865;SDS011;1948;53.250;10.412;2024-03-02T09:58:00;26.37;;;17.67;;
3865;SDS011;1948;53.250;10.412;2024-03-02T10:00:28;25.17;;;17.17;;
3865;SDS011;1948;53.250;10.412;2024-03-02T10:02:55;25.70;;;17.70;;
3865;SDS011;1948;53.250;10.412;2024-03-02T10:05:27;21.30;;;16.90;;
3865;SDS011;1948;53.250;10.412;2024-03-02T10:07:59;24.67;;;18.47;;
3865;SDS011;1948;53.250;10.412;2024-03-02T10:10:36;22.43;;;17.27;;
3865;SDS011;1948;53.250;10.412;2024-03-02T10:13:11;23.83;;;17.07;;
3865;SDS011;1948;53.250;10.412;2024-03-02T10:15:40;21.00;;;15.67;;
3865;SDS011;1948;53.250;10.412;2024-03-02T10:18:10;30.93;;;18.97;;
3865;SDS011;1948;53.250;10.412;2024-03-02T10:20:39;24.17;;;17.00;;
3865;SDS011;1948;53.250;10.412;2024-03-02T10:23:10;23.33;;;17.00;;
3865;SDS011;1948;53.250;10.412;2024-03-02T10:25:43;23.13;;;17.40;;
3865;SDS011;1948;53.250;10.412;2024-03-02T10:28:23;21.13;;;15.50;;
3865;SDS011;1948;53.250;10.412;2024-03-02T10:30:54;21.63;;;15.83;;
3865;SDS011;1948;53.250;10.412;2024-03-02T10:33:24;25.97;;;16.40;;
3865;SDS011;1948;53.250;10.412;2024-03-02T10:35:56;27.03;;;17.03;;
3865;SDS011;1948;53.250;10.412;2024-03-02T10:38:23;24.43;;;15.40;;
3865;SDS011;1948;53.250;10.412;2024-03-02T10:40:55;21.50;;;15.27;;
3865;SDS011;1948;53.250;10.412;2024-03-02T10:43:25;19.20;;;15.13;;
3865;SDS011;1948;53.250;10.412;2024-03-02T10:45:52;23.27;;;15.90;;
3865;SDS011;1948;53.250;10.412;2024-03-02T10:48:25;18.60;;;15.37;;
3865;SDS011;1948;53.250;10.412;2024-03-02T10:50:54;24.00;;;16.40;;
3865;SDS011;1948;53.250;10.412;2024-03-02T10:53:23;21.83;;;15.93;;
3865;SDS011;1948;53.250;10.412;2024-03-02T10:55:50;24.27;;;16.00;;
3865;SDS011;1948;53.250;10.412;2024-03-02T10:58:31;24.17;;;16.70;;
3865;SDS011;1948;53.250;10.412;2024-03-02T11:01:04;23.93;;;16.27;;
3865;SDS011;1948;53.250;10.412;2024-03-02T11:03:35;19.97;;;15.30;;
3865;SDS011;1948;53.250;10.412;2024-03-02T11:06:10;22.93;;;16.50;;
3865;SDS011;1948;53.250;10.412;2024-03-02T11:08:38;30.03;;;15.87;;
3865;SDS011;1948;53.250;10.412;2024-03-02T11:11:07;22.33;;;15.40;;
3865;SDS011;1948;53.250;10.412;2024-03-02T11:13:43;24.03;;;14.53;;
3865;SDS011;1948;53.250;10.412;2024-03-02T11:16:19;21.17;;;15.20;;
3865;SDS011;1948;53.250;10.412;2024-03-02T11:19:03;20.07;;;15.60;;
3865;SDS011;1948;53.250;10.412;2024-03-02T11:21:33;21.93;;;15.50;;
3865;SDS011;1948;53.250;10.412;2024-03-02T11:27:04;24.30;;;16.13;;
3865;SDS011;1948;53.250;10.412;2024-03-02T11:32:13;25.43;;;15.80;;
3865;SDS011;1948;53.250;10.412;2024-03-02T11:34:47;24.10;;;15.67;;
3865;SDS011;1948;53.250;10.412;2024-03-02T11:37:24;21.63;;;15.97;;
3865;SDS011;1948;53.250;10.412;2024-03-02T11:39:51;19.97;;;15.97;;
3865;SDS011;1948;53.250;10.412;2024-03-02T11:42:18;20.97;;;16.67;;
3865;SDS011;1948;53.250;10.412;2024-03-02T11:44:46;29.10;;;16.40;;
3865;SDS011;1948;53.250;10.412;2024-03-02T11:47:19;21.70;;;15.77;;
3865;SDS011;1948;53.250;10.412;2024-03-02T11:52:20;19.97;;;16.77;;
3865;SDS011;1948;53.250;10.412;2024-03-02T11:54:52;20.47;;;15.90;;
3865;SDS011;1948;53.250;10.412;2024-03-02T11:57:24;22.80;;;16.70;;
3865;SDS011;1948;53.250;10.412;2024-03-02T11:59:57;20.20;;;16.40;;
3865;SDS011;1948;53.250;10.412;2024-03-02T12:02:29;25.10;;;16.17;;
3865;SDS011;1948;53.250;10.412;2024-03-02T12:04:57;23.30;;;16.57;;
3865;SDS011;1948;53.250;10.412;2024-03-02T12:07:36;20.10;;;15.70;;
3865;SDS011;1948;53.250;10.412;2024-03-02T12:10:03;20.60;;;14.97;;
3865;SDS011;1948;53.250;10.412;2024-03-02T12:12:31;20.07;;;15.43;;
3865;SDS011;1948;53.250;10.412;2024-03-02T12:14:58;22.53;;;16.33;;
3865;SDS011;1948;53.250;10.412;2024-03-02T12:17:29;23.47;;;16.30;;
3865;SDS011;1948;53.250;10.412;2024-03-02T12:19:56;24.23;;;16.47;;
3865;SDS011;1948;53.250;10.412;2024-03-02T12:22:23;19.63;;;14.47;;
3865;SDS011;1948;53.250;10.412;2024-03-02T12:24:50;20.40;;;14.33;;
3865;SDS011;1948;53.250;10.412;2024-03-02T12:27:17;22.10;;;15.10;;
3865;SDS011;1948;53.250;10.412;2024-03-02T12:29:47;29.23;;;15.17;;
3865;SDS011;1948;53.250;10.412;2024-03-02T12:32:17;24.37;;;15.20;;
3865;SDS011;1948;53.250;10.412;2024-03-02T12:34:47;22.07;;;14.77;;
3865;SDS011;1948;53.250;10.412;2024-03-02T12:37:17;21.07;;;14.87;;
3865;SDS011;1948;53.250;10.412;2024-03-02T12:39:45;26.97;;;17.43;;
3865;SDS011;1948;53.250;10.412;2024-03-02T12:42:13;22.70;;;14.43;;
3865;SDS011;1948;53.250;10.412;2024-03-02T12:44:42;21.03;;;14.03;;
3865;SDS011;1948;53.250;10.412;2024-03-02T12:47:11;26.13;;;14.90;;
3865;SDS011;1948;53.250;10.412;2024-03-02T12:49:40;20.73;;;15.13;;
3865;SDS011;1948;53.250;10.412;2024-03-02T12:52:07;21.07;;;13.30;;
3865;SDS011;1948;53.250;10.412;2024-03-02T12:54:34;22.73;;;14.17;;
3865;SDS011;1948;53.250;10.412;2024-03-02T12:57:01;20.20;;;13.97;;
3865;SDS011;1948;53.250;10.412;2024-03-02T12:59:28;18.40;;;14.17;;
3865;SDS011;1948;53.250;10.412;2024-03-02T13:01:55;20.00;;;14.03;;
3865;SDS011;1948;53.250;10.412;2024-03-02T13:04:28;26.20;;;15.10;;
3865;SDS011;1948;53.250;10.412;2024-03-02T13:06:58;18.30;;;14.07;;
3865;SDS011;1948;53.250;10.412;2024-03-02T13:09:25;19.30;;;14.63;;
3865;SDS011;1948;53.250;10.412;2024-03-02T13:11:53;21.83;;;14.43;;
3865;SDS011;1948;53.250;10.412;2024-03-02T13:14:21;25.80;;;14.80;;
3865;SDS011;1948;53.250;10.412;2024-03-02T13:16:51;22.47;;;14.93;;
3865;SDS011;1948;53.250;10.412;2024-03-02T13:19:23;22.17;;;15.17;;
3865;SDS011;1948;53.250;10.412;2024-03-02T13:21:50;21.80;;;14.47;;
3865;SDS011;1948;53.250;10.412;2024-03-02T13:24:17;22.50;;;14.30;;
3865;SDS011;1948;53.250;10.412;2024-03-02T13:26:46;29.93;;;13.80;;
3865;SDS011;1948;53.250;10.412;2024-03-02T13:29:13;18.20;;;13.43;;
3865;SDS011;1948;53.250;10.412;2024-03-02T13:31:40;23.00;;;15.03;;
3865;SDS011;1948;53.250;10.412;2024-03-02T13:34:07;21.40;;;14.20;;
3865;SDS011;1948;53.250;10.412;2024-03-02T13:36:34;19.73;;;13.77;;
3865;SDS011;1948;53.250;10.412;2024-03-02T13:39:01;18.00;;;13.20;;
3865;SDS011;1948;53.250;10.412;2024-03-02T13:41:29;22.90;;;14.20;;
3865;SDS011;1948;53.250;10.412;2024-03-02T13:43:56;19.90;;;13.50;;
3865;SDS011;1948;53.250;10.412;2024-03-02T13:46:23;20.40;;;14.50;;
3865;SDS011;1948;53.250;10.412;2024-03-02T13:48:50;20.03;;;13.43;;
3865;SDS011;1948;53.250;10.412;2024-03-02T13:51:21;18.10;;;13.63;;
3865;SDS011;1948;53.250;10.412;2024-03-02T13:53:48;19.37;;;14.43;;
3865;SDS011;1948;53.250;10.412;2024-03-02T13:56:15;17.00;;;13.37;;
3865;SDS011;1948;53.250;10.412;2024-03-02T13:58:45;25.23;;;14.20;;
3865;SDS011;1948;53.250;10.412;2024-03-02T14:01:15;21.93;;;12.87;;
3865;SDS011;1948;53.250;10.412;2024-03-02T14:03:42;16.10;;;12.43;;
3865;SDS011;1948;53.250;10.412;2024-03-02T14:06:12;21.93;;;12.50;;
3865;SDS011;1948;53.250;10.412;2024-03-02T14:08:39;18.47;;;12.70;;
3865;SDS011;1948;53.250;10.412;2024-03-02T14:11:14;20.07;;;12.73;;
3865;SDS011;1948;53.250;10.412;2024-03-02T14:13:41;15.30;;;11.60;;
3865;SDS011;1948;53.250;10.412;2024-03-02T14:16:14;19.90;;;12.70;;
3865;SDS011;1948;53.250;10.412;2024-03-02T14:18:41;15.90;;;12.27;;
3865;SDS011;1948;53.250;10.412;2024-03-02T14:21:11;18.20;;;13.10;;
3865;SDS011;1948;53.250;10.412;2024-03-02T14:23:38;16.33;;;11.73;;
3865;SDS011;1948;53.250;10.412;2024-03-02T14:26:07;18.33;;;11.90;;
3865;SDS011;1948;53.250;10.412;2024-03-02T14:28:36;18.67;;;12.10;;
3865;SDS011;1948;53.250;10.412;2024-03-02T14:31:16;20.70;;;11.37;;
3865;SDS011;1948;53.250;10.412;2024-03-02T14:33:44;17.23;;;12.00;;
3865;SDS011;1948;53.250;10.412;2024-03-02T14:36:11;18.63;;;11.80;;
3865;SDS011;1948;53.250;10.412;2024-03-02T14:38:40;13.67;;;11.17;;
3865;SDS011;1948;53.250;10.412;2024-03-02T14:41:10;17.13;;;11.40;;
3865;SDS011;1948;53.250;10.412;2024-03-02T14:43:37;17.77;;;11.27;;
3865;SDS011;1948;53.250;10.412;2024-03-02T14:46:04;14.17;;;11.17;;
3865;SDS011;1948;53.250;10.412;2024-03-02T14:48:35;11.27;;;9.77;;
3865;SDS011;1948;53.250;10.412;2024-03-02T14:51:04;12.77;;;9.93;;
3865;SDS011;1948;53.250;10.412;2024-03-02T14:53:31;12.90;;;9.20;;
3865;SDS011;1948;53.250;10.412;2024-03-02T14:55:58;12.20;;;8.87;;